Аэропорт: Чебоксары. Чебоксары

ICAO: UWKS

METAR:
2018/09/19 07:30
UWKS 190730Z 32008MPS 9999 BKN020CB 10/06 Q1007 R24/010060 TEMPO 31010G15MPS RMK QFE741
METAR:
2015/12/20 18:00
TAF UWKS 201632Z 2018/2103 27003MPS 2700 -SNRA BR OVC007 
      TEMPO 2018/2102 0500 FZDZ FZFG OVC002